createdAt,value
2022-08-03T00:00:33.338Z,74.41
2022-08-03T00:03:04.703Z,74.83
2022-08-03T00:05:35.672Z,75.51
2022-08-03T00:08:03.738Z,75.84
2022-08-03T00:10:33.030Z,76.87
2022-08-03T00:13:01.084Z,77.14
2022-08-03T00:15:28.979Z,77.69
2022-08-03T00:17:56.877Z,77.06
2022-08-03T00:20:25.234Z,77.46
2022-08-03T00:22:53.104Z,77.53
2022-08-03T00:25:21.030Z,78.51
2022-08-03T00:27:49.038Z,78.98
2022-08-03T00:30:18.938Z,79.65
2022-08-03T00:32:47.922Z,79.71
2022-08-03T00:35:35.110Z,80.28
2022-08-03T00:38:04.677Z,80.43
2022-08-03T00:40:32.832Z,80.32
2022-08-03T00:43:06.692Z,81.29
2022-08-03T00:45:37.622Z,81.44
2022-08-03T00:48:07.372Z,82.30
2022-08-03T00:50:55.343Z,82.87
2022-08-03T00:53:23.235Z,83.47
2022-08-03T00:55:51.350Z,84.21
2022-08-03T00:58:19.615Z,84.61
2022-08-03T01:00:47.549Z,84.08
2022-08-03T01:03:15.533Z,84.11
2022-08-03T01:06:03.238Z,85.17
2022-08-03T01:08:44.192Z,85.64
2022-08-03T01:11:59.997Z,85.55
2022-08-03T01:14:58.568Z,85.59
2022-08-03T01:17:34.806Z,85.54
2022-08-03T01:20:13.817Z,86.04
2022-08-03T01:22:59.895Z,86.14
2022-08-03T01:25:40.321Z,86.32
2022-08-03T01:28:26.845Z,86.25
2022-08-03T01:30:59.265Z,87.14
2022-08-03T01:33:37.302Z,87.26
2022-08-03T01:36:09.846Z,87.81
2022-08-03T01:38:44.019Z,88.19
2022-08-03T01:41:38.007Z,88.22
2022-08-03T01:44:29.852Z,87.98
2022-08-03T01:47:00.790Z,88.01
2022-08-03T01:49:32.098Z,88.28
2022-08-03T01:52:04.852Z,88.24
2022-08-03T01:54:42.525Z,88.41
2022-08-03T01:57:11.829Z,88.13
2022-08-03T01:59:41.709Z,88.14
2022-08-03T02:02:15.432Z,88.27
2022-08-03T02:05:01.654Z,89.02
2022-08-03T02:07:31.068Z,89.19
2022-08-03T02:10:00.311Z,89.23
2022-08-03T02:12:31.895Z,89.61
2022-08-03T02:15:01.528Z,89.02
2022-08-03T02:17:38.954Z,89.12
2022-08-03T02:20:13.574Z,89.12
2022-08-03T02:22:43.504Z,89.25
2022-08-03T02:25:13.001Z,89.53
2022-08-03T02:27:52.839Z,89.65
2022-08-03T02:30:23.718Z,89.72
2022-08-03T02:32:58.002Z,89.96
2022-08-03T02:35:29.798Z,89.98
2022-08-03T02:38:02.485Z,90.27
2022-08-03T02:40:32.386Z,90.54
2022-08-03T02:43:07.719Z,90.42
2022-08-03T02:45:45.371Z,90.04
2022-08-03T02:48:18.610Z,90.98
2022-08-03T02:50:48.310Z,90.97
2022-08-03T02:53:17.646Z,91.08
2022-08-03T02:55:47.305Z,91.48
2022-08-03T02:58:19.812Z,91.79
2022-08-03T03:00:48.695Z,92.01
2022-08-03T03:03:16.699Z,92.34
2022-08-03T03:05:55.754Z,92.26
2022-08-03T03:08:28.697Z,92.10
2022-08-03T03:11:01.007Z,92.34
2022-08-03T03:13:31.196Z,92.31
2022-08-03T03:16:02.579Z,92.15
2022-08-03T03:18:33.346Z,92.39
2022-08-03T03:21:03.662Z,91.98
2022-08-03T03:23:34.205Z,91.97
2022-08-03T03:26:02.641Z,92.35
2022-08-03T03:28:31.976Z,92.18
2022-08-03T03:31:01.078Z,92.27
2022-08-03T03:33:29.127Z,92.24
2022-08-03T03:35:58.662Z,91.80
2022-08-03T03:38:26.939Z,91.51
2022-08-03T03:40:55.209Z,91.95
2022-08-03T03:43:24.007Z,91.98
2022-08-03T03:45:53.767Z,91.54
2022-08-03T03:48:21.917Z,90.95
2022-08-03T03:50:50.676Z,91.44
2022-08-03T03:53:19.021Z,92.06
2022-08-03T03:56:01.673Z,91.14
2022-08-03T03:58:32.734Z,91.33
2022-08-03T04:01:01.141Z,91.91
2022-08-03T04:03:29.549Z,92.07
2022-08-03T04:06:17.532Z,91.86
2022-08-03T04:09:21.226Z,91.90
2022-08-03T04:11:51.809Z,91.74
2022-08-03T04:14:33.889Z,92.14
2022-08-03T04:17:05.740Z,91.50
2022-08-03T04:19:38.836Z,90.78
2022-08-03T04:22:10.926Z,90.76
2022-08-03T04:24:47.351Z,91.00
2022-08-03T04:27:18.559Z,91.06
2022-08-03T04:29:49.710Z,91.29
2022-08-03T04:32:18.369Z,93.76
2022-08-03T04:34:47.397Z,96.95
2022-08-03T04:37:23.897Z,96.62
2022-08-03T04:39:54.612Z,93.50
2022-08-03T04:42:26.353Z,90.56
2022-08-03T04:45:01.120Z,90.05
2022-08-03T04:47:33.320Z,92.14
2022-08-03T04:50:03.063Z,91.91
2022-08-03T04:52:31.592Z,90.49
2022-08-03T04:54:59.548Z,89.68
2022-08-03T04:57:27.494Z,89.17
2022-08-03T05:00:02.188Z,88.42
2022-08-03T05:02:31.955Z,88.41
2022-08-03T05:05:00.329Z,88.90
2022-08-03T05:07:36.175Z,89.17
2022-08-03T05:10:16.047Z,89.48
2022-08-03T05:12:47.703Z,92.38
2022-08-03T05:15:16.056Z,92.34
2022-08-03T05:17:44.179Z,90.00
2022-08-03T05:20:12.789Z,88.38
2022-08-03T05:22:40.822Z,89.21
2022-08-03T05:25:08.979Z,88.64
2022-08-03T05:27:36.993Z,88.62
2022-08-03T05:30:30.669Z,87.49
2022-08-03T05:32:53.630Z,87.59
2022-08-03T05:36:02.640Z,87.26
2022-08-03T05:38:09.663Z,88.25
2022-08-03T05:40:38.620Z,87.57
2022-08-03T05:43:15.001Z,86.79
2022-08-03T05:45:43.472Z,86.16
2022-08-03T05:48:11.415Z,86.36
2022-08-03T05:50:42.800Z,86.59
2022-08-03T05:53:10.891Z,86.67
2022-08-03T05:55:38.850Z,86.89
2022-08-03T05:58:06.891Z,85.87
2022-08-03T06:00:34.853Z,85.70
2022-08-03T06:03:02.836Z,86.24
2022-08-03T06:05:31.522Z,86.20
2022-08-03T06:07:59.418Z,85.06
2022-08-03T06:10:35.506Z,85.21
2022-08-03T06:13:05.602Z,84.50
2022-08-03T06:15:35.512Z,84.82
2022-08-03T06:18:03.616Z,84.49
2022-08-03T06:20:31.547Z,84.32
2022-08-03T06:23:01.366Z,82.94
2022-08-03T06:25:29.512Z,83.07
2022-08-03T06:27:59.582Z,83.87
2022-08-03T06:30:27.583Z,83.44
2022-08-03T06:32:55.533Z,83.36
2022-08-03T06:35:23.644Z,81.97
2022-08-03T06:37:52.811Z,81.35
2022-08-03T06:40:32.240Z,80.90
2022-08-03T06:43:02.349Z,80.37
2022-08-03T06:45:32.260Z,80.57
2022-08-03T06:48:11.766Z,80.29
2022-08-03T06:50:42.108Z,80.62
2022-08-03T06:53:11.390Z,80.83
2022-08-03T06:55:54.209Z,80.74
2022-08-03T06:58:24.252Z,80.84
2022-08-03T07:00:52.737Z,80.58
2022-08-03T07:03:21.025Z,79.83
2022-08-03T07:05:50.994Z,79.86
2022-08-03T07:08:19.298Z,79.90
2022-08-03T07:11:02.098Z,79.46
2022-08-03T07:13:30.170Z,78.77
2022-08-03T07:15:58.147Z,79.33
2022-08-03T07:18:29.686Z,78.93
2022-08-03T07:20:58.691Z,78.71
2022-08-03T07:23:26.682Z,78.48
2022-08-03T07:25:54.906Z,77.93
2022-08-03T07:28:22.889Z,78.37
2022-08-03T07:30:50.948Z,77.75
2022-08-03T07:33:18.945Z,77.28
2022-08-03T07:35:46.864Z,77.64
2022-08-03T07:38:14.786Z,77.62
2022-08-03T07:40:46.168Z,77.13
2022-08-03T07:43:14.456Z,76.08
2022-08-03T07:45:42.477Z,75.07
2022-08-03T07:48:12.623Z,74.11
2022-08-03T07:50:40.778Z,75.19
2022-08-03T07:53:08.877Z,74.58
2022-08-03T07:55:36.744Z,74.85
2022-08-03T07:58:12.624Z,75.29
2022-08-03T08:00:40.740Z,75.35
2022-08-03T08:03:09.050Z,75.22
2022-08-03T08:05:37.705Z,74.01
2022-08-03T08:08:05.948Z,72.63
2022-08-03T08:10:35.236Z,72.38
2022-08-03T08:13:04.881Z,73.53
2022-08-03T08:15:33.038Z,74.13
2022-08-03T08:18:02.552Z,73.49
2022-08-03T08:20:37.961Z,73.07
2022-08-03T08:23:19.275Z,73.26
2022-08-03T08:25:56.973Z,73.62
2022-08-03T08:28:32.303Z,72.65
2022-08-03T08:31:01.969Z,72.92
2022-08-03T08:33:42.486Z,72.50
2022-08-03T08:36:18.419Z,72.80
2022-08-03T08:38:46.490Z,72.28
2022-08-03T08:41:15.743Z,71.40
2022-08-03T08:43:43.878Z,70.03
2022-08-03T08:46:23.222Z,69.13
2022-08-03T08:48:54.160Z,70.02
2022-08-03T08:51:23.157Z,67.63
2022-08-03T08:53:54.003Z,66.97
2022-08-03T08:56:25.775Z,67.34
2022-08-03T08:58:58.504Z,67.73
2022-08-03T09:01:27.753Z,65.01
2022-08-03T09:03:55.740Z,66.37
2022-08-03T09:06:24.229Z,66.23
2022-08-03T09:08:52.265Z,66.36
2022-08-03T09:11:52.645Z,64.14
2022-08-03T09:14:34.432Z,64.94
2022-08-03T09:17:04.817Z,65.28
2022-08-03T09:19:34.884Z,65.16
2022-08-03T09:22:14.444Z,63.96
2022-08-03T09:25:22.661Z,62.95
2022-08-03T09:27:49.009Z,64.05
2022-08-03T09:30:33.391Z,63.49
2022-08-03T09:33:05.504Z,64.72
2022-08-03T09:35:53.028Z,64.46
2022-08-03T09:38:24.348Z,63.95
2022-08-03T09:40:58.843Z,63.91
2022-08-03T09:43:48.517Z,64.32
2022-08-03T09:46:18.807Z,63.28
2022-08-03T09:48:46.800Z,62.61
2022-08-03T09:51:32.755Z,62.33
2022-08-03T09:54:15.047Z,61.11
2022-08-03T09:56:47.413Z,60.28
2022-08-03T09:59:27.908Z,60.14
2022-08-03T10:01:57.236Z,59.11
2022-08-03T10:04:25.946Z,59.22
2022-08-03T10:07:09.491Z,58.04
2022-08-03T10:09:38.234Z,57.46
2022-08-03T10:12:13.966Z,57.28
2022-08-03T10:14:45.431Z,57.43
2022-08-03T10:17:13.889Z,55.98
2022-08-03T10:19:42.263Z,57.60
2022-08-03T10:22:22.793Z,57.43
2022-08-03T10:24:59.430Z,57.78
2022-08-03T10:27:32.926Z,58.38
2022-08-03T10:30:05.144Z,56.47
2022-08-03T10:32:43.229Z,55.41
2022-08-03T10:35:23.547Z,54.73
2022-08-03T10:38:23.112Z,55.29
2022-08-03T10:40:58.956Z,54.76
2022-08-03T10:43:49.254Z,53.10
2022-08-03T10:46:20.807Z,53.39
2022-08-03T10:48:51.820Z,53.89
2022-08-03T10:51:21.203Z,52.19
2022-08-03T10:53:54.490Z,51.96
2022-08-03T10:56:50.786Z,51.80
2022-08-03T10:59:46.709Z,50.56
2022-08-03T11:02:15.459Z,51.56
2022-08-03T11:04:45.347Z,51.00
2022-08-03T11:07:36.020Z,49.63
2022-08-03T11:10:07.766Z,50.84
2022-08-03T11:12:38.639Z,51.15
2022-08-03T11:15:08.889Z,50.85
2022-08-03T11:17:46.285Z,51.23
2022-08-03T11:20:57.642Z,50.89
2022-08-03T11:24:04.442Z,49.31
2022-08-03T11:26:30.263Z,48.82
2022-08-03T11:29:28.703Z,48.27
2022-08-03T11:31:56.604Z,45.71
2022-08-03T11:34:25.191Z,45.98
2022-08-03T11:37:22.965Z,46.79
2022-08-03T11:39:54.730Z,46.46
2022-08-03T11:42:22.963Z,47.03
2022-08-03T11:44:52.892Z,45.65
2022-08-03T11:47:21.947Z,46.13
2022-08-03T11:49:52.133Z,45.49
2022-08-03T11:52:26.674Z,44.69
2022-08-03T11:54:56.528Z,45.31
2022-08-03T11:59:10.731Z,45.59
2022-08-03T12:00:21.879Z,43.56
2022-08-03T12:03:13.960Z,43.48
2022-08-03T12:05:51.964Z,42.02
2022-08-03T12:08:32.370Z,40.61
2022-08-03T12:11:04.632Z,41.80
2022-08-03T12:14:44.123Z,41.93
2022-08-03T12:16:28.897Z,40.00
2022-08-03T12:18:59.437Z,41.43
2022-08-03T12:21:28.118Z,40.28
2022-08-03T12:24:05.998Z,39.78
2022-08-03T12:26:58.988Z,39.73
2022-08-03T12:29:28.910Z,38.69
2022-08-03T12:31:57.190Z,39.87
2022-08-03T12:34:47.226Z,38.04
2022-08-03T12:37:29.005Z,37.37
2022-08-03T12:40:10.104Z,36.29
2022-08-03T12:42:39.937Z,36.50
2022-08-03T12:45:21.250Z,37.84
2022-08-03T12:47:52.726Z,37.43
2022-08-03T12:50:27.235Z,36.73
2022-08-03T12:52:56.058Z,37.09
2022-08-03T12:55:24.775Z,36.60
2022-08-03T12:57:52.680Z,36.11
2022-08-03T13:00:21.381Z,35.74
2022-08-03T13:03:26.516Z,33.79
2022-08-03T13:05:48.294Z,33.30
2022-08-03T13:08:23.539Z,34.41
2022-08-03T13:10:52.035Z,34.77
2022-08-03T13:13:38.407Z,34.95
2022-08-03T13:16:06.396Z,35.44
2022-08-03T13:18:34.338Z,35.12
2022-08-03T13:21:02.423Z,34.21
2022-08-03T13:23:30.487Z,34.06
2022-08-03T13:25:58.524Z,34.25
2022-08-03T13:28:26.533Z,34.52
2022-08-03T13:30:54.908Z,34.48
2022-08-03T13:33:22.937Z,34.00
2022-08-03T13:35:50.969Z,34.50
2022-08-03T13:38:18.994Z,34.35
2022-08-03T13:40:51.987Z,34.53
2022-08-03T13:43:21.597Z,35.00
2022-08-03T13:45:53.533Z,34.48
2022-08-03T13:48:37.728Z,34.05
2022-08-03T13:51:21.596Z,34.43
2022-08-03T13:53:51.591Z,33.54
2022-08-03T13:56:19.552Z,34.05
2022-08-03T13:58:47.476Z,33.96
2022-08-03T14:01:15.666Z,33.23
2022-08-03T14:03:43.729Z,32.62
2022-08-03T14:06:11.692Z,33.07
2022-08-03T14:08:39.561Z,33.03
2022-08-03T14:11:07.479Z,32.94
2022-08-03T14:13:35.353Z,32.20
2022-08-03T14:16:03.940Z,31.10
2022-08-03T14:18:33.536Z,31.34
2022-08-03T14:21:06.447Z,31.34
2022-08-03T14:23:36.083Z,30.72
2022-08-03T14:26:07.941Z,29.61
2022-08-03T14:28:36.313Z,29.57
2022-08-03T14:31:08.373Z,30.04
2022-08-03T14:33:53.061Z,30.33
2022-08-03T14:36:21.048Z,29.73
2022-08-03T14:38:49.173Z,30.16
2022-08-03T14:41:20.047Z,29.65
2022-08-03T14:44:01.346Z,29.49
2022-08-03T14:46:31.380Z,29.86
2022-08-03T14:49:02.650Z,29.98
2022-08-03T14:51:51.230Z,29.68
2022-08-03T14:54:22.830Z,29.75
2022-08-03T14:56:51.176Z,29.56
2022-08-03T14:59:19.271Z,30.02
2022-08-03T15:02:02.696Z,29.99
2022-08-03T15:04:34.804Z,29.85
2022-08-03T15:07:02.940Z,29.50
2022-08-03T15:09:31.028Z,29.69
2022-08-03T15:11:59.691Z,29.39
2022-08-03T15:14:28.327Z,29.15
2022-08-03T15:17:01.140Z,29.32
2022-08-03T15:20:03.743Z,28.91
2022-08-03T15:22:18.981Z,29.22
2022-08-03T15:24:48.831Z,29.04
2022-08-03T15:27:16.890Z,28.98
2022-08-03T15:30:07.284Z,28.77
2022-08-03T15:32:34.070Z,27.92
2022-08-03T15:35:02.268Z,28.39
2022-08-03T15:37:33.234Z,28.05
2022-08-03T15:40:01.349Z,27.99
2022-08-03T15:42:30.682Z,28.29
2022-08-03T15:44:58.903Z,28.75
2022-08-03T15:47:27.492Z,28.49
2022-08-03T15:49:55.836Z,28.09
2022-08-03T15:52:24.016Z,27.62
2022-08-03T15:54:52.081Z,28.05
2022-08-03T15:57:20.700Z,27.99
2022-08-03T15:59:49.041Z,27.94
2022-08-03T16:02:17.075Z,28.06
2022-08-03T16:04:45.042Z,28.43
2022-08-03T16:07:15.920Z,28.55
2022-08-03T16:09:44.310Z,28.35
2022-08-03T16:12:16.272Z,28.58
2022-08-03T16:14:53.781Z,28.30
2022-08-03T16:17:22.640Z,28.36
2022-08-03T16:19:54.830Z,28.34
2022-08-03T16:22:24.192Z,28.15
2022-08-03T16:24:53.536Z,28.23
2022-08-03T16:27:58.151Z,28.24
2022-08-03T16:30:12.855Z,28.20
2022-08-03T16:32:40.825Z,28.17
2022-08-03T16:35:09.323Z,27.46
2022-08-03T16:37:51.843Z,27.94
2022-08-03T16:40:25.581Z,28.16
2022-08-03T16:42:53.558Z,28.26
2022-08-03T16:45:21.653Z,28.27
2022-08-03T16:48:01.738Z,28.78
2022-08-03T16:50:35.447Z,29.05
2022-08-03T16:53:09.497Z,28.95
2022-08-03T16:55:49.010Z,28.80
2022-08-03T16:58:34.825Z,29.13
2022-08-03T17:01:22.021Z,29.18
2022-08-03T17:04:02.816Z,29.18
2022-08-03T17:06:36.216Z,29.59
2022-08-03T17:09:12.801Z,29.95
2022-08-03T17:11:46.533Z,30.03
2022-08-03T17:14:17.386Z,29.77
2022-08-03T17:16:53.820Z,30.17
2022-08-03T17:19:25.361Z,30.55
2022-08-03T17:22:16.013Z,30.44
2022-08-03T17:24:51.077Z,31.04
2022-08-03T17:28:48.060Z,31.21
2022-08-03T17:30:15.944Z,31.34
2022-08-03T17:32:52.615Z,31.89
2022-08-03T17:35:34.313Z,32.34
2022-08-03T17:38:08.881Z,32.57
2022-08-03T17:40:48.277Z,33.66
2022-08-03T17:44:14.443Z,34.18
2022-08-03T17:46:10.780Z,34.88
2022-08-03T17:48:41.546Z,34.84
2022-08-03T17:51:30.025Z,35.17
2022-08-03T17:54:21.064Z,35.89
2022-08-03T17:57:01.334Z,36.42
2022-08-03T18:00:23.016Z,36.26
2022-08-03T18:03:15.997Z,36.89
2022-08-03T18:06:12.003Z,37.50
2022-08-03T18:08:43.337Z,38.63
2022-08-03T18:11:16.819Z,39.82
2022-08-03T18:13:57.975Z,40.33
2022-08-03T18:16:37.684Z,40.95
2022-08-03T18:19:09.685Z,41.32
2022-08-03T18:22:03.383Z,41.91
2022-08-03T18:24:31.517Z,42.41
2022-08-03T18:27:02.565Z,42.92
2022-08-03T18:29:31.338Z,43.34
2022-08-03T18:32:05.973Z,43.70
2022-08-03T18:34:41.151Z,44.45
2022-08-03T18:37:26.168Z,45.16
2022-08-03T18:39:58.370Z,45.93
2022-08-03T18:42:28.134Z,45.98
2022-08-03T18:48:11.895Z,46.90
2022-08-03T18:51:09.919Z,47.94
2022-08-03T18:56:50.178Z,48.73
2022-08-03T18:59:38.677Z,49.92
2022-08-03T19:02:09.659Z,51.20
2022-08-03T19:04:46.185Z,51.45
2022-08-03T19:07:23.346Z,51.22
2022-08-03T19:09:55.838Z,50.89
2022-08-03T19:12:37.848Z,51.31
2022-08-03T19:15:10.237Z,51.52
2022-08-03T19:17:53.305Z,51.43
2022-08-03T19:20:28.213Z,51.91
2022-08-03T19:22:57.437Z,52.33
2022-08-03T19:25:34.508Z,52.58
2022-08-03T19:28:07.528Z,52.68
2022-08-03T19:30:39.893Z,53.27
2022-08-03T19:33:14.028Z,53.24
2022-08-03T19:35:55.006Z,53.43
2022-08-03T19:38:28.186Z,53.72
2022-08-03T19:41:02.086Z,54.23
2022-08-03T19:43:53.410Z,54.76
2022-08-03T19:46:30.946Z,54.79
2022-08-03T19:49:14.711Z,57.72
2022-08-03T19:52:00.561Z,58.20
2022-08-03T19:54:53.429Z,56.02
2022-08-03T19:57:25.229Z,55.66
2022-08-03T19:59:55.129Z,55.83
2022-08-03T20:02:26.399Z,56.16
2022-08-03T20:04:57.181Z,56.28
2022-08-03T20:07:26.969Z,56.48
2022-08-03T20:09:56.676Z,56.40
2022-08-03T20:12:28.045Z,56.79
2022-08-03T20:14:58.562Z,56.53
2022-08-03T20:17:54.881Z,56.68
2022-08-03T20:20:24.110Z,56.48
2022-08-03T20:22:57.582Z,56.95
2022-08-03T20:25:38.754Z,56.81
2022-08-03T20:28:14.959Z,56.70
2022-08-03T20:30:47.200Z,56.81
2022-08-03T20:33:18.248Z,57.10
2022-08-03T20:35:49.788Z,56.46
2022-08-03T20:42:28.983Z,56.89
2022-08-03T20:45:04.374Z,56.87
2022-08-03T20:47:35.896Z,57.15
2022-08-03T20:50:04.558Z,57.39
2022-08-03T20:52:49.487Z,57.24
2022-08-03T20:55:47.062Z,57.13
2022-08-03T20:58:07.223Z,57.00
2022-08-03T21:00:35.439Z,57.18
2022-08-03T21:03:03.971Z,57.24
2022-08-03T21:05:51.290Z,57.46
2022-08-03T21:08:22.510Z,57.87
2022-08-03T21:10:59.138Z,58.25
2022-08-03T21:12:59.144Z,46.54
2022-08-03T21:13:09.878Z,48.21
2022-08-03T21:13:27.867Z,58.00
2022-08-03T21:16:11.708Z,57.90
2022-08-03T21:18:52.454Z,57.99
2022-08-03T21:21:22.921Z,58.15
2022-08-03T21:23:53.527Z,58.39
2022-08-03T21:26:26.017Z,58.59
2022-08-03T21:28:56.848Z,58.82
2022-08-03T21:31:26.523Z,59.09
2022-08-03T21:34:00.949Z,59.35
2022-08-03T21:36:34.666Z,60.40
2022-08-03T21:39:05.224Z,60.27
2022-08-03T21:41:33.289Z,60.64
2022-08-03T21:44:02.273Z,60.73
2022-08-03T21:46:35.579Z,60.44
2022-08-03T21:50:07.262Z,60.39
2022-08-03T21:52:05.197Z,61.82
2022-08-03T21:54:38.251Z,61.56
2022-08-03T21:57:13.354Z,61.35
2022-08-03T21:59:48.001Z,60.98
2022-08-03T22:02:24.032Z,61.26
2022-08-03T22:04:56.287Z,61.29
2022-08-03T22:07:27.654Z,61.50
2022-08-03T22:09:56.889Z,60.85
2022-08-03T22:12:27.285Z,61.54
2022-08-03T22:15:00.830Z,61.37
2022-08-03T22:17:55.060Z,61.07
2022-08-03T22:20:21.358Z,61.16
2022-08-03T22:22:56.061Z,61.25
2022-08-03T22:25:30.929Z,61.20
2022-08-03T22:28:01.592Z,61.27
2022-08-03T22:30:29.795Z,61.70
2022-08-03T22:32:59.437Z,61.66
2022-08-03T22:35:28.127Z,61.55
2022-08-03T22:37:58.585Z,61.83
2022-08-03T22:40:27.978Z,62.38
2022-08-03T22:42:56.881Z,63.37
2022-08-03T22:46:06.404Z,64.14
2022-08-03T22:48:18.207Z,64.31
2022-08-03T22:50:47.221Z,64.38
2022-08-03T22:53:21.086Z,64.47
2022-08-03T22:55:50.427Z,64.66
2022-08-03T22:58:23.471Z,64.72
2022-08-03T23:01:12.003Z,64.91
2022-08-03T23:04:00.253Z,64.71
2022-08-03T23:06:36.006Z,64.91
2022-08-03T23:09:07.090Z,65.26
2022-08-03T23:11:45.791Z,65.52
2022-08-03T23:14:16.775Z,65.17
2022-08-03T23:16:46.596Z,65.47
2022-08-03T23:19:24.986Z,65.43
2022-08-03T23:22:03.298Z,65.42
2022-08-03T23:24:38.174Z,65.43
2022-08-03T23:27:08.180Z,65.51
2022-08-03T23:29:38.548Z,65.34
2022-08-03T23:32:07.065Z,65.74
2022-08-03T23:34:57.319Z,65.53
2022-08-03T23:37:26.445Z,65.48
2022-08-03T23:39:57.069Z,64.95
2022-08-03T23:42:26.199Z,64.94
2022-08-03T23:44:59.293Z,64.88
2022-08-03T23:47:46.839Z,65.26
2022-08-03T23:50:16.852Z,64.86
2022-08-03T23:52:53.358Z,64.86
2022-08-03T23:55:36.812Z,64.73
2022-08-03T23:58:38.385Z,64.66
